Lagrange, Wyoming
Current Conditions -  °F | °C
As of 6:53 PM on Thursday 20 Nov 2014 (Local Time) from KTOR Reporting Station
Clear Clear  
Wind Chill: 34°   Ceiling: Unl
Heat Index: 38°   Visibility: 10mi
Dew Point: 16°   Wind: 5mph
Humidity: 41%   Direction: 160°SSE
Pressure: 29.93"   Gusts: NA
Location:  41.63°N, 104.35°W
Report Text: KTOR 210153Z AUTO 16004KT 10SM CLR 03/M09 A2993 RMK AO2 SLP172 T00331089
Loading
Personal Weather Stations






























Interactive Weather Map New forecast layout! Learn more

10-Day Weather Forecast

Advertisements
Track Severe Weather on mobile